Darstellungsparameter: Aktuell verwendete Einstellungen:
Skalierung der Graphiken ... ?
xyx+y,   Skalierungsfaktor:      Skalierung: Modus: x, Faktor: 1
Darstellungszeitraum ... ?
Vom - - bis: - -   Zeitraum: 22.10.2021 - 23.10.2021
Min/Max/Avg-Anzeige ... ?
Zeige MMA aktuell
Zeige MMA Monat
Zeige MMA alles
Zeige --A aktuell
Zeige --A Monat
Zeige --A alles
Keine MMA-Anzeige
MMA:
Average (ber die Originaldaten)
MMA-Basis: 17.04.2019 - 19.05.2019
Quicknavigation für Darstellung... ?
Tage:      1T, 2T, 3T, 5T -1T -2T -3T -5T +1T +2T +3T +5T
Wochen: 1W, 2W, 3W -1W -2W -3W +1W +2W +3W
Monate: 1M, 3M, 6M -1M -3M -6M +1M +3M +6M
Jahre:    1J, 3J, 5J, 10J -1J -3J -5J -10J +1J +3J +5J +10J
Nutze für die Darstellung ... ?
Originaldaten oder Mittelwerte auf ...
Stundenbasis Tagesbasis Wochenbasis
Monatsbasis Jahresbasis      Datenbasis: Original-Daten
Darstellen als:
Statistik (Auto) Statistik J:M      Darstellung:
Zur Graphik,    zurück zur Übersicht aller Sensoren.
 
Tabellarische Datenbersicht: ?
 
Sensor: Nr:Datum:Temp:Abs-Feuchte:Windchill:Wind:
Aussen-T/F 1 22-10-2021 00:00:00 4.9 C 6.41 g/m*3 4.9 C 0 km/h
2 22-10-2021 00:05:00 4.9 C 6.41 g/m*3 4.9 C 0 km/h
3 22-10-2021 00:10:00 4.9 C 6.41 g/m*3 4.9 C 0 km/h
4 22-10-2021 00:15:00 4.8 C 6.37 g/m*3 4.8 C 0 km/h
5 22-10-2021 00:20:00 4.8 C 6.37 g/m*3 4.8 C 3.2 km/h
6 22-10-2021 00:25:00 4.8 C 6.37 g/m*3 4.8 C 1.6 km/h
7 22-10-2021 00:30:00 4.8 C 6.37 g/m*3 4.8 C 0 km/h
8 22-10-2021 00:35:00 4.8 C 6.37 g/m*3 4.8 C 1.6 km/h
9 22-10-2021 00:40:00 4.8 C 6.37 g/m*3 4.8 C 0 km/h
10 22-10-2021 00:45:00 4.8 C 6.37 g/m*3 4.8 C 3.2 km/h
11 22-10-2021 00:50:00 4.8 C 6.37 g/m*3 4.8 C 3.2 km/h
12 22-10-2021 00:55:00 4.8 C 6.37 g/m*3 4.8 C 3.2 km/h
13 22-10-2021 01:00:00 4.8 C 6.37 g/m*3 4.8 C 0 km/h
14 22-10-2021 01:05:00 4.7 C 6.33 g/m*3 4.7 C 0 km/h
15 22-10-2021 01:10:00 4.7 C 6.33 g/m*3 4.7 C 1.6 km/h
16 22-10-2021 01:15:00 4.7 C 6.33 g/m*3 4.7 C 3.2 km/h
17 22-10-2021 01:20:00 4.7 C 6.33 g/m*3 4.7 C 0 km/h
18 22-10-2021 01:25:00 4.6 C 6.29 g/m*3 4.6 C 3.2 km/h
19 22-10-2021 01:30:00 4.6 C 6.29 g/m*3 4.6 C 4.8 km/h
20 22-10-2021 01:35:00 4.6 C 6.29 g/m*3 4.6 C 4.8 km/h
21 22-10-2021 01:40:00 4.7 C 6.33 g/m*3 4.7 C 0 km/h
22 22-10-2021 01:45:00 4.7 C 6.39 g/m*3 4.7 C 0 km/h
23 22-10-2021 01:50:00 4.7 C 6.39 g/m*3 4.7 C 0 km/h
24 22-10-2021 01:55:00 4.8 C 6.44 g/m*3 4.8 C 0 km/h
25 22-10-2021 02:00:00 4.7 C 6.39 g/m*3 4.7 C 0 km/h
Sensor: Nr:Datum:Temp:Abs-Feuchte:Windchill:Wind:
Aussen-T/F 26 22-10-2021 02:05:00 4.7 C 6.39 g/m*3 4.7 C 1.6 km/h
27 22-10-2021 02:10:00 4.6 C 6.29 g/m*3 4.6 C 3.2 km/h
28 22-10-2021 02:15:00 4.6 C 6.29 g/m*3 4.6 C 1.6 km/h
29 22-10-2021 02:20:00 4.5 C 6.31 g/m*3 4.5 C 1.6 km/h
30 22-10-2021 02:25:00 4.4 C 6.27 g/m*3 4.4 C 1.6 km/h
31 22-10-2021 02:30:00 4.4 C 6.2 g/m*3 4.4 C 0 km/h
32 22-10-2021 02:35:00 4.4 C 6.2 g/m*3 4.4 C 0 km/h
33 22-10-2021 02:40:00 4.4 C 6.27 g/m*3 4.4 C 3.2 km/h
34 22-10-2021 02:45:00 4.4 C 6.27 g/m*3 4.4 C 3.2 km/h
35 22-10-2021 02:50:00 4.4 C 6.27 g/m*3 4.4 C 4.8 km/h
36 22-10-2021 02:55:00 4.6 C 6.35 g/m*3 4.6 C 3.2 km/h
37 22-10-2021 03:00:00 4.6 C 6.35 g/m*3 4.6 C 3.2 km/h
38 22-10-2021 03:05:00 4.7 C 6.39 g/m*3 3.25 C 6.4 km/h
39 22-10-2021 03:10:00 4.8 C 6.44 g/m*3 4.8 C 4.8 km/h
40 22-10-2021 03:15:00 5.2 C 6.61 g/m*3 3.34 C 8.1 km/h
41 22-10-2021 03:20:00 5.3 C 6.65 g/m*3 3.46 C 8.1 km/h
42 22-10-2021 03:25:00 5.4 C 6.7 g/m*3 5.4 C 4.8 km/h
43 22-10-2021 03:30:00 5.4 C 6.7 g/m*3 4.06 C 6.4 km/h
44 22-10-2021 03:35:00 5.4 C 6.7 g/m*3 3.58 C 8.1 km/h
45 22-10-2021 03:40:00 5.3 C 6.65 g/m*3 3.08 C 9.7 km/h
46 22-10-2021 03:45:00 5.2 C 6.61 g/m*3 5.2 C 0 km/h
47 22-10-2021 03:50:00 5.2 C 6.61 g/m*3 5.2 C 3.2 km/h
48 22-10-2021 03:55:00 5.1 C 6.5 g/m*3 3.23 C 8.1 km/h
49 22-10-2021 04:00:00 5 C 6.46 g/m*3 3.59 C 6.4 km/h
50 22-10-2021 04:05:00 5 C 6.46 g/m*3 3.11 C 8.1 km/h
Sensor: Nr:Datum:Temp:Abs-Feuchte:Windchill:Wind:
Aussen-T/F 51 22-10-2021 04:10:00 4.9 C 6.41 g/m*3 4.9 C 0 km/h
52 22-10-2021 04:15:00 4.8 C 6.37 g/m*3 4.8 C 0 km/h
53 22-10-2021 04:20:00 4.7 C 6.33 g/m*3 4.7 C 3.2 km/h
54 22-10-2021 04:25:00 4.7 C 6.33 g/m*3 4.7 C 3.2 km/h
55 22-10-2021 04:30:00 4.7 C 6.33 g/m*3 3.25 C 6.4 km/h
56 22-10-2021 04:35:00 4.8 C 6.44 g/m*3 3.36 C 6.4 km/h
57 22-10-2021 04:40:00 4.8 C 6.44 g/m*3 4.8 C 1.6 km/h
58 22-10-2021 04:45:00 4.8 C 6.44 g/m*3 3.36 C 6.4 km/h
59 22-10-2021 04:50:00 4.8 C 6.44 g/m*3 2.49 C 9.7 km/h
60 22-10-2021 04:55:00 4.8 C 6.44 g/m*3 3.36 C 6.4 km/h
61 22-10-2021 05:00:00 4.9 C 6.48 g/m*3 2.99 C 8.1 km/h
62 22-10-2021 05:05:00 4.9 C 6.41 g/m*3 2.99 C 8.1 km/h
63 22-10-2021 05:10:00 4.9 C 6.41 g/m*3 2.61 C 9.7 km/h
64 22-10-2021 05:15:00 4.9 C 6.41 g/m*3 4.9 C 4.8 km/h
65 22-10-2021 05:20:00 4.9 C 6.41 g/m*3 2.99 C 8.1 km/h
66 22-10-2021 05:25:00 4.8 C 6.37 g/m*3 3.36 C 6.4 km/h
67 22-10-2021 05:30:00 4.8 C 6.37 g/m*3 4.8 C 4.8 km/h
68 22-10-2021 05:35:00 4.8 C 6.37 g/m*3 4.8 C 4.8 km/h
69 22-10-2021 05:40:00 4.7 C 6.33 g/m*3 4.7 C 4.8 km/h
70 22-10-2021 05:45:00 4.7 C 6.33 g/m*3 4.7 C 3.2 km/h
71 22-10-2021 05:50:00 4.7 C 6.33 g/m*3 2.03 C 11.3 km/h
72 22-10-2021 05:55:00 4.7 C 6.33 g/m*3 4.7 C 4.8 km/h
73 22-10-2021 06:00:00 4.7 C 6.33 g/m*3 4.7 C 4.8 km/h
74 22-10-2021 06:05:00 4.7 C 6.33 g/m*3 4.7 C 4.8 km/h
75 22-10-2021 06:10:00 4.6 C 6.29 g/m*3 4.6 C 1.6 km/h
Sensor: Nr:Datum:Temp:Abs-Feuchte:Windchill:Wind:
Aussen-T/F 76 22-10-2021 06:15:00 4.6 C 6.29 g/m*3 4.6 C 1.6 km/h
77 22-10-2021 06:20:00 4.5 C 6.24 g/m*3 4.5 C 3.2 km/h
78 22-10-2021 06:25:00 4.4 C 6.2 g/m*3 4.4 C 0 km/h
79 22-10-2021 06:30:00 4.4 C 6.2 g/m*3 4.4 C 3.2 km/h
80 22-10-2021 06:35:00 4.4 C 6.2 g/m*3 4.4 C 1.6 km/h
81 22-10-2021 06:40:00 4.4 C 6.2 g/m*3 4.4 C 4.8 km/h
82 22-10-2021 07:30:00 4.2 C 6.12 g/m*3 4.2 C 4.8 km/h
83 22-10-2021 07:35:00 4.3 C 6.16 g/m*3 1.55 C 11.3 km/h
84 22-10-2021 07:40:00 4.4 C 6.2 g/m*3 2.9 C 6.4 km/h
85 22-10-2021 07:45:00 4.5 C 6.24 g/m*3 1.79 C 11.3 km/h
86 22-10-2021 07:50:00 4.5 C 6.24 g/m*3 1.79 C 11.3 km/h
87 22-10-2021 07:55:00 4.5 C 6.24 g/m*3 0.74 C 17.7 km/h
88 22-10-2021 08:00:00 4.6 C 6.29 g/m*3 0.86 C 17.7 km/h
89 22-10-2021 08:05:00 4.5 C 6.24 g/m*3 2.52 C 8.1 km/h
90 22-10-2021 08:10:00 4.4 C 6.14 g/m*3 4.4 C 3.2 km/h
91 22-10-2021 08:15:00 4.4 C 6.14 g/m*3 4.4 C 4.8 km/h
92 22-10-2021 08:20:00 4.4 C 6.14 g/m*3 2.9 C 6.4 km/h
93 22-10-2021 08:25:00 4.4 C 6.14 g/m*3 2.01 C 9.7 km/h
94 22-10-2021 08:30:00 4.5 C 6.24 g/m*3 1.48 C 12.9 km/h
95 22-10-2021 08:35:00 4.6 C 6.22 g/m*3 2.64 C 8.1 km/h
96 22-10-2021 08:40:00 4.6 C 6.22 g/m*3 2.64 C 8.1 km/h
97 22-10-2021 08:45:00 4.7 C 6.26 g/m*3 2.76 C 8.1 km/h
98 22-10-2021 08:50:00 4.8 C 6.3 g/m*3 2.49 C 9.7 km/h
99 22-10-2021 08:55:00 4.8 C 6.3 g/m*3 2.15 C 11.3 km/h
100 22-10-2021 09:00:00 4.8 C 6.24 g/m*3 1.85 C 12.9 km/h
Sensor: Nr:Datum:Temp:Abs-Feuchte:Windchill:Wind:
Aussen-T/F 101 22-10-2021 09:05:00 4.8 C 6.24 g/m*3 1.85 C 12.9 km/h
102 22-10-2021 09:10:00 4.9 C 6.28 g/m*3 2.61 C 9.7 km/h
103 22-10-2021 09:15:00 4.9 C 6.28 g/m*3 1.97 C 12.9 km/h
104 22-10-2021 09:20:00 4.9 C 6.28 g/m*3 2.61 C 9.7 km/h
105 22-10-2021 09:25:00 5.1 C 6.36 g/m*3 2.22 C 12.9 km/h
106 22-10-2021 09:30:00 5.1 C 6.29 g/m*3 2.84 C 9.7 km/h
107 22-10-2021 09:35:00 5.1 C 6.29 g/m*3 3.23 C 8.1 km/h
108 22-10-2021 09:40:00 5.2 C 6.33 g/m*3 2.63 C 11.3 km/h
109 22-10-2021 09:45:00 5.2 C 6.33 g/m*3 2.63 C 11.3 km/h
110 22-10-2021 09:50:00 5.2 C 6.27 g/m*3 2.34 C 12.9 km/h
111 22-10-2021 09:55:00 5.3 C 6.31 g/m*3 3.94 C 6.4 km/h
112 22-10-2021 10:00:00 5.3 C 6.31 g/m*3 3.08 C 9.7 km/h
113 22-10-2021 10:05:00 5.3 C 6.31 g/m*3 2.75 C 11.3 km/h
114 22-10-2021 10:10:00 5.4 C 6.35 g/m*3 2.87 C 11.3 km/h
115 22-10-2021 10:15:00 5.5 C 6.39 g/m*3 2.99 C 11.3 km/h
116 22-10-2021 10:20:00 5.6 C 6.43 g/m*3 2.33 C 16.1 km/h
117 22-10-2021 10:25:00 5.8 C 6.45 g/m*3 1.97 C 20.9 km/h
118 22-10-2021 10:30:00 5.9 C 6.42 g/m*3 2.7 C 16.1 km/h
119 22-10-2021 10:35:00 6.1 C 6.43 g/m*3 2.35 C 20.9 km/h
120 22-10-2021 10:40:00 6.2 C 6.47 g/m*3 2.48 C 20.9 km/h
121 22-10-2021 10:45:00 6.2 C 6.47 g/m*3 3.56 C 12.9 km/h
122 22-10-2021 10:50:00 6.2 C 6.47 g/m*3 3.3 C 14.5 km/h
123 22-10-2021 10:55:00 6.3 C 6.51 g/m*3 3.2 C 16.1 km/h
124 22-10-2021 11:00:00 6.3 C 6.51 g/m*3 2.98 C 17.7 km/h
125 22-10-2021 11:05:00 6.4 C 6.56 g/m*3 3.8 C 12.9 km/h
Sensor: Nr:Datum:Temp:Abs-Feuchte:Windchill:Wind:
Aussen-T/F 126 22-10-2021 11:10:00 6.5 C 6.6 g/m*3 3.67 C 14.5 km/h
127 22-10-2021 11:15:00 6.6 C 6.64 g/m*3 4.32 C 11.3 km/h
128 22-10-2021 11:20:00 6.7 C 6.69 g/m*3 4.17 C 12.9 km/h
129 22-10-2021 11:25:00 6.8 C 6.65 g/m*3 3.82 C 16.1 km/h
130 22-10-2021 11:30:00 6.9 C 6.7 g/m*3 4.41 C 12.9 km/h
131 22-10-2021 11:35:00 7 C 6.74 g/m*3 4.8 C 11.3 km/h
132 22-10-2021 11:40:00 7.1 C 6.79 g/m*3 4.92 C 11.3 km/h
133 22-10-2021 11:45:00 7.2 C 6.83 g/m*3 4.11 C 17.7 km/h
134 22-10-2021 11:50:00 7.3 C 6.79 g/m*3 4.9 C 12.9 km/h
135 22-10-2021 11:55:00 7.3 C 6.79 g/m*3 4.9 C 12.9 km/h
136 22-10-2021 12:00:00 7.4 C 6.84 g/m*3 5.02 C 12.9 km/h
137 22-10-2021 12:05:00 7.5 C 6.88 g/m*3 4.48 C 17.7 km/h
138 22-10-2021 12:10:00 7.6 C 6.85 g/m*3 4.81 C 16.1 km/h
139 22-10-2021 12:15:00 7.8 C 6.94 g/m*3 5.51 C 12.9 km/h
140 22-10-2021 12:20:00 7.9 C 6.98 g/m*3 4.8 C 19.3 km/h
141 22-10-2021 12:25:00 8.2 C 7.03 g/m*3 5.76 C 14.5 km/h
142 22-10-2021 12:30:00 8.3 C 7 g/m*3 5.31 C 19.3 km/h
143 22-10-2021 12:35:00 8.4 C 7.04 g/m*3 5.27 C 20.9 km/h
144 22-10-2021 12:40:00 8.6 C 7.13 g/m*3 6.25 C 14.5 km/h
145 22-10-2021 12:45:00 8.8 C 7.14 g/m*3 6.11 C 17.7 km/h
146 22-10-2021 12:50:00 9.1 C 7.28 g/m*3 7.09 C 12.9 km/h
147 22-10-2021 12:55:00 9.3 C 7.37 g/m*3 6.92 C 16.1 km/h
148 22-10-2021 13:00:00 9.6 C 7.42 g/m*3 7.29 C 16.1 km/h
149 22-10-2021 13:05:00 9.7 C 7.38 g/m*3 7.23 C 17.7 km/h
150 22-10-2021 13:10:00 9.7 C 7.38 g/m*3 7.61 C 14.5 km/h
Sensor: Nr:Datum:Temp:Abs-Feuchte:Windchill:Wind:
Aussen-T/F 151 22-10-2021 13:15:00 9.7 C 7.38 g/m*3 7.82 C 12.9 km/h
152 22-10-2021 13:20:00 9.8 C 7.42 g/m*3 7.54 C 16.1 km/h
153 22-10-2021 13:25:00 9.9 C 7.56 g/m*3 8.56 C 9.7 km/h
154 22-10-2021 13:30:00 9.9 C 7.47 g/m*3 7.48 C 17.7 km/h
155 22-10-2021 13:35:00 10.1 C 7.56 g/m*3 8.31 C 12.9 km/h
156 22-10-2021 13:40:00 10.2 C 7.42 g/m*3 7.4 C 22.5 km/h
157 22-10-2021 13:45:00 10.3 C 7.47 g/m*3 7.53 C 22.5 km/h
158 22-10-2021 13:50:00 10.5 C 7.57 g/m*3 8.4 C 16.1 km/h
159 22-10-2021 13:55:00 10.6 C 7.61 g/m*3 8.53 C 16.1 km/h
160 22-10-2021 14:00:00 10.6 C 7.61 g/m*3 8.05 C 20.9 km/h
161 22-10-2021 14:05:00 10.6 C 7.61 g/m*3 8.92 C 12.9 km/h
162 22-10-2021 14:10:00 10.6 C 7.61 g/m*3 8.92 C 12.9 km/h
163 22-10-2021 14:15:00 10.7 C 7.76 g/m*3 8.84 C 14.5 km/h
164 22-10-2021 14:20:00 10.7 C 7.76 g/m*3 8.65 C 16.1 km/h
165 22-10-2021 14:25:00 10.8 C 7.71 g/m*3 9.16 C 12.9 km/h
166 22-10-2021 14:30:00 10.9 C 7.56 g/m*3 9.51 C 11.3 km/h
167 22-10-2021 14:35:00 10.9 C 7.36 g/m*3 9.51 C 11.3 km/h
168 22-10-2021 14:40:00 11.1 C 7.25 g/m*3 11.1 C 14.5 km/h
169 22-10-2021 14:45:00 11.3 C 7.34 g/m*3 11.3 C 20.9 km/h
170 22-10-2021 14:50:00 11.4 C 7.19 g/m*3 11.4 C 14.5 km/h
171 22-10-2021 14:55:00 11.6 C 7.17 g/m*3 11.6 C 25.7 km/h
172 22-10-2021 15:00:00 11.7 C 7.11 g/m*3 11.7 C 25.7 km/h
173 22-10-2021 15:05:00 11.7 C 7.22 g/m*3 11.7 C 22.5 km/h
174 22-10-2021 15:10:00 11.7 C 7.22 g/m*3 11.7 C 11.3 km/h
175 22-10-2021 15:15:00 11.7 C 7.32 g/m*3 11.7 C 11.3 km/h
Sensor: Nr:Datum:Temp:Abs-Feuchte:Windchill:Wind:
Aussen-T/F 176 22-10-2021 15:20:00 11.7 C 7.22 g/m*3 11.7 C 11.3 km/h
177 22-10-2021 15:25:00 11.7 C 7.22 g/m*3 11.7 C 11.3 km/h
178 22-10-2021 15:30:00 11.6 C 7.07 g/m*3 11.6 C 12.9 km/h
179 22-10-2021 15:35:00 11.6 C 7.07 g/m*3 11.6 C 17.7 km/h
180 22-10-2021 15:40:00 11.5 C 7.13 g/m*3 11.5 C 11.3 km/h
181 22-10-2021 15:45:00 11.5 C 7.02 g/m*3 11.5 C 16.1 km/h
182 22-10-2021 15:50:00 11.4 C 6.98 g/m*3 11.4 C 14.5 km/h
183 22-10-2021 15:55:00 11.4 C 7.08 g/m*3 11.4 C 9.7 km/h
184 22-10-2021 16:00:00 11.4 C 7.08 g/m*3 11.4 C 14.5 km/h
185 22-10-2021 16:05:00 11.4 C 7.08 g/m*3 11.4 C 17.7 km/h
186 22-10-2021 16:10:00 11.4 C 7.08 g/m*3 11.4 C 11.3 km/h
187 22-10-2021 16:15:00 11.4 C 6.98 g/m*3 11.4 C 20.9 km/h
188 22-10-2021 16:20:00 11.4 C 6.77 g/m*3 11.4 C 16.1 km/h
189 22-10-2021 16:25:00 11.4 C 6.88 g/m*3 11.4 C 20.9 km/h
190 22-10-2021 16:30:00 11.5 C 7.02 g/m*3 11.5 C 14.5 km/h
191 22-10-2021 16:35:00 11.4 C 6.98 g/m*3 11.4 C 14.5 km/h
192 22-10-2021 16:40:00 11.4 C 6.98 g/m*3 11.4 C 12.9 km/h
193 22-10-2021 16:45:00 11.3 C 6.94 g/m*3 11.3 C 14.5 km/h
194 22-10-2021 16:50:00 11.3 C 6.94 g/m*3 11.3 C 17.7 km/h
195 22-10-2021 16:55:00 11.3 C 6.94 g/m*3 11.3 C 14.5 km/h
196 22-10-2021 17:00:00 11.3 C 6.94 g/m*3 11.3 C 12.9 km/h
197 22-10-2021 17:05:00 11.3 C 7.04 g/m*3 11.3 C 12.9 km/h
198 22-10-2021 17:10:00 11.3 C 7.14 g/m*3 11.3 C 11.3 km/h
199 22-10-2021 17:15:00 11.2 C 7.1 g/m*3 11.2 C 8.1 km/h
200 22-10-2021 17:20:00 11.2 C 7.1 g/m*3 11.2 C 12.9 km/h
Sensor: Nr:Datum:Temp:Abs-Feuchte:Windchill:Wind:
Aussen-T/F 201 22-10-2021 17:25:00 11.2 C 7.1 g/m*3 11.2 C 8.1 km/h
202 22-10-2021 17:30:00 11.2 C 7.1 g/m*3 11.2 C 9.7 km/h
203 22-10-2021 17:35:00 11.1 C 7.25 g/m*3 11.1 C 11.3 km/h
204 22-10-2021 17:40:00 11.1 C 7.15 g/m*3 11.1 C 11.3 km/h
205 22-10-2021 17:45:00 11.2 C 7.1 g/m*3 11.2 C 11.3 km/h
206 22-10-2021 17:50:00 11.2 C 7.2 g/m*3 11.2 C 14.5 km/h
207 22-10-2021 17:55:00 11.2 C 7.1 g/m*3 11.2 C 20.9 km/h
208 22-10-2021 18:00:00 11.2 C 7.2 g/m*3 11.2 C 12.9 km/h
209 22-10-2021 18:05:00 11.2 C 7.2 g/m*3 11.2 C 16.1 km/h
210 22-10-2021 18:10:00 11.1 C 7.15 g/m*3 11.1 C 9.7 km/h
211 22-10-2021 18:15:00 11 C 7.21 g/m*3 9.88 C 9.7 km/h
212 22-10-2021 18:20:00 10.8 C 7.22 g/m*3 8.3 C 20.9 km/h
213 22-10-2021 18:25:00 10.7 C 7.17 g/m*3 9.04 C 12.9 km/h
214 22-10-2021 18:30:00 10.6 C 7.22 g/m*3 10.06 C 6.4 km/h
215 22-10-2021 18:35:00 10.6 C 7.42 g/m*3 9.4 C 9.7 km/h
216 22-10-2021 18:40:00 10.4 C 7.42 g/m*3 9.16 C 9.7 km/h
217 22-10-2021 18:45:00 10.3 C 7.47 g/m*3 8.78 C 11.3 km/h
218 22-10-2021 18:50:00 10.2 C 7.52 g/m*3 8.66 C 11.3 km/h
219 22-10-2021 18:55:00 10.1 C 7.47 g/m*3 8.54 C 11.3 km/h
220 22-10-2021 19:00:00 9.9 C 7.38 g/m*3 8.3 C 11.3 km/h
221 22-10-2021 19:05:00 9.8 C 7.42 g/m*3 8.18 C 11.3 km/h
222 22-10-2021 19:10:00 9.7 C 7.38 g/m*3 7.82 C 12.9 km/h
223 22-10-2021 19:15:00 9.7 C 7.38 g/m*3 8.33 C 9.7 km/h
224 22-10-2021 19:20:00 9.7 C 7.38 g/m*3 9.02 C 6.4 km/h
225 22-10-2021 19:25:00 9.7 C 7.38 g/m*3 8.63 C 8.1 km/h
Sensor: Nr:Datum:Temp:Abs-Feuchte:Windchill:Wind:
Aussen-T/F 226 22-10-2021 19:30:00 9.7 C 7.47 g/m*3 8.33 C 9.7 km/h
227 22-10-2021 19:35:00 9.7 C 7.47 g/m*3 8.63 C 8.1 km/h
228 22-10-2021 19:40:00 9.7 C 7.47 g/m*3 8.33 C 9.7 km/h
229 22-10-2021 19:45:00 9.8 C 7.52 g/m*3 8.75 C 8.1 km/h
230 22-10-2021 19:50:00 9.8 C 7.52 g/m*3 8.18 C 11.3 km/h
231 22-10-2021 19:55:00 9.8 C 7.52 g/m*3 7.54 C 16.1 km/h
232 22-10-2021 20:00:00 9.8 C 7.52 g/m*3 8.18 C 11.3 km/h
233 22-10-2021 20:05:00 9.8 C 7.52 g/m*3 7.73 C 14.5 km/h
234 22-10-2021 20:10:00 9.8 C 7.52 g/m*3 8.75 C 8.1 km/h
235 22-10-2021 20:15:00 9.8 C 7.42 g/m*3 7.94 C 12.9 km/h
236 22-10-2021 20:20:00 9.9 C 7.47 g/m*3 8.56 C 9.7 km/h
237 22-10-2021 20:25:00 9.9 C 7.47 g/m*3 7.85 C 14.5 km/h
238 22-10-2021 20:30:00 9.9 C 7.38 g/m*3 8.06 C 12.9 km/h
239 22-10-2021 20:35:00 9.9 C 7.38 g/m*3 7.66 C 16.1 km/h
240 22-10-2021 20:40:00 10 C 7.42 g/m*3 8.19 C 12.9 km/h
241 22-10-2021 20:45:00 9.9 C 7.38 g/m*3 8.06 C 12.9 km/h
242 22-10-2021 20:50:00 9.9 C 7.38 g/m*3 8.06 C 12.9 km/h
243 22-10-2021 20:55:00 9.8 C 7.33 g/m*3 8.45 C 9.7 km/h
244 22-10-2021 21:00:00 9.8 C 7.33 g/m*3 7.54 C 16.1 km/h
245 22-10-2021 21:05:00 9.9 C 7.38 g/m*3 8.06 C 12.9 km/h
246 22-10-2021 21:10:00 9.9 C 7.47 g/m*3 8.3 C 11.3 km/h
247 22-10-2021 21:15:00 9.9 C 7.47 g/m*3 7.66 C 16.1 km/h
248 22-10-2021 21:20:00 9.9 C 7.47 g/m*3 8.3 C 11.3 km/h
249 22-10-2021 21:25:00 10 C 7.52 g/m*3 8.19 C 12.9 km/h
250 22-10-2021 21:30:00 10 C 7.52 g/m*3 8.42 C 11.3 km/h
Sensor: Nr:Datum:Temp:Abs-Feuchte:Windchill:Wind:
Aussen-T/F 251 22-10-2021 21:35:00 10 C 7.52 g/m*3 8.19 C 12.9 km/h
252 22-10-2021 21:40:00 9.9 C 7.56 g/m*3 8.87 C 8.1 km/h
253 22-10-2021 21:45:00 9.9 C 7.56 g/m*3 8.06 C 12.9 km/h
254 22-10-2021 21:50:00 9.8 C 7.61 g/m*3 9.8 C 4.8 km/h
255 22-10-2021 21:55:00 9.8 C 7.7 g/m*3 9.8 C 4.8 km/h
256 22-10-2021 22:00:00 9.7 C 7.65 g/m*3 8.63 C 8.1 km/h
257 22-10-2021 22:05:00 9.6 C 7.69 g/m*3 8.91 C 6.4 km/h
258 22-10-2021 22:10:00 9.6 C 7.79 g/m*3 9.6 C 3.2 km/h
259 22-10-2021 22:15:00 9.4 C 7.78 g/m*3 9.4 C 4.8 km/h
260 22-10-2021 22:20:00 9.3 C 7.82 g/m*3 9.3 C 0 km/h
261 22-10-2021 22:25:00 9.2 C 7.86 g/m*3 9.2 C 3.2 km/h
262 22-10-2021 22:30:00 9.1 C 7.9 g/m*3 9.1 C 3.2 km/h
263 22-10-2021 22:35:00 8.9 C 7.88 g/m*3 8.9 C 1.6 km/h
264 22-10-2021 22:40:00 8.9 C 7.88 g/m*3 8.9 C 3.2 km/h
265 22-10-2021 22:45:00 8.8 C 7.92 g/m*3 8.8 C 4.8 km/h
266 22-10-2021 22:50:00 8.7 C 7.87 g/m*3 8.7 C 0 km/h
267 22-10-2021 22:55:00 8.7 C 7.87 g/m*3 8.7 C 0 km/h
268 22-10-2021 23:00:00 8.7 C 7.96 g/m*3 8.7 C 3.2 km/h
269 22-10-2021 23:05:00 8.6 C 7.91 g/m*3 8.6 C 4.8 km/h
270 22-10-2021 23:10:00 8.6 C 7.91 g/m*3 8.6 C 3.2 km/h
271 22-10-2021 23:15:00 8.6 C 7.99 g/m*3 8.6 C 3.2 km/h
272 22-10-2021 23:20:00 8.6 C 7.99 g/m*3 8.6 C 1.6 km/h
273 22-10-2021 23:25:00 8.5 C 7.94 g/m*3 8.5 C 1.6 km/h
274 22-10-2021 23:30:00 8.5 C 7.94 g/m*3 8.5 C 3.2 km/h
275 22-10-2021 23:35:00 8.4 C 7.89 g/m*3 8.4 C 3.2 km/h
Sensor: Nr:Datum:Temp:Abs-Feuchte:Windchill:Wind:
Aussen-T/F 276 22-10-2021 23:40:00 8.4 C 7.89 g/m*3 8.4 C 4.8 km/h
277 22-10-2021 23:45:00 8.4 C 7.97 g/m*3 8.4 C 1.6 km/h
278 22-10-2021 23:50:00 8.3 C 7.92 g/m*3 8.3 C 4.8 km/h
279 22-10-2021 23:55:00 8.3 C 7.92 g/m*3 8.3 C 0 km/h
280 23-10-2021 00:00:00 8.3 C 7.84 g/m*3 8.3 C 3.2 km/h
281 23-10-2021 00:05:00 8.2 C 7.87 g/m*3 8.2 C 3.2 km/h
282 23-10-2021 00:10:00 8.1 C 7.82 g/m*3 8.1 C 4.8 km/h
283 23-10-2021 00:15:00 8.1 C 7.82 g/m*3 8.1 C 3.2 km/h
284 23-10-2021 00:20:00 8.1 C 7.82 g/m*3 8.1 C 0 km/h
285 23-10-2021 00:25:00 8.1 C 7.82 g/m*3 8.1 C 3.2 km/h
286 23-10-2021 00:30:00 8.2 C 7.87 g/m*3 8.2 C 0 km/h
287 23-10-2021 00:35:00 8.2 C 7.87 g/m*3 8.2 C 1.6 km/h
288 23-10-2021 00:40:00 8.2 C 7.87 g/m*3 8.2 C 3.2 km/h
289 23-10-2021 00:45:00 8.2 C 7.87 g/m*3 8.2 C 4.8 km/h
290 23-10-2021 00:50:00 8.2 C 7.87 g/m*3 8.2 C 3.2 km/h
291 23-10-2021 00:55:00 8.2 C 7.87 g/m*3 8.2 C 1.6 km/h
292 23-10-2021 01:00:00 8.2 C 7.96 g/m*3 8.2 C 1.6 km/h
293 23-10-2021 01:05:00 8.2 C 7.96 g/m*3 8.2 C 1.6 km/h
294 23-10-2021 01:10:00 8.2 C 7.96 g/m*3 8.2 C 1.6 km/h
295 23-10-2021 01:15:00 8.2 C 7.96 g/m*3 8.2 C 3.2 km/h
296 23-10-2021 01:20:00 8.2 C 7.96 g/m*3 8.2 C 1.6 km/h
297 23-10-2021 01:25:00 8.2 C 7.96 g/m*3 8.2 C 0 km/h
298 23-10-2021 01:30:00 8.1 C 7.9 g/m*3 8.1 C 0 km/h
299 23-10-2021 01:35:00 8.1 C 7.9 g/m*3 8.1 C 0 km/h
300 23-10-2021 01:40:00 7.9 C 7.8 g/m*3 7.9 C 0 km/h
Sensor: Nr:Datum:Temp:Abs-Feuchte:Windchill:Wind:
Aussen-T/F 301 23-10-2021 01:45:00 7.8 C 7.67 g/m*3 7.8 C 3.2 km/h
302 23-10-2021 01:50:00 7.7 C 7.62 g/m*3 7.7 C 0 km/h
303 23-10-2021 01:55:00 7.5 C 7.52 g/m*3 7.5 C 3.2 km/h
304 23-10-2021 02:00:00 7.4 C 7.48 g/m*3 7.4 C 1.6 km/h
305 23-10-2021 02:05:00 7.5 C 7.6 g/m*3 7.5 C 3.2 km/h
306 23-10-2021 02:10:00 7.5 C 7.6 g/m*3 7.5 C 1.6 km/h
307 23-10-2021 02:15:00 7.6 C 7.65 g/m*3 7.6 C 4.8 km/h
308 23-10-2021 02:20:00 7.6 C 7.65 g/m*3 7.6 C 3.2 km/h
309 23-10-2021 02:25:00 7.6 C 7.65 g/m*3 7.6 C 0 km/h
310 23-10-2021 02:30:00 7.6 C 7.65 g/m*3 7.6 C 0 km/h
311 23-10-2021 02:35:00 7.6 C 7.65 g/m*3 7.6 C 0 km/h
312 23-10-2021 02:40:00 7.5 C 7.6 g/m*3 7.5 C 3.2 km/h
313 23-10-2021 02:45:00 7.5 C 7.6 g/m*3 7.5 C 1.6 km/h
314 23-10-2021 02:50:00 7.4 C 7.55 g/m*3 7.4 C 1.6 km/h
315 23-10-2021 02:55:00 7.4 C 7.55 g/m*3 7.4 C 0 km/h
316 23-10-2021 03:00:00 7.4 C 7.55 g/m*3 7.4 C 0 km/h
317 23-10-2021 03:05:00 7.5 C 7.6 g/m*3 7.5 C 0 km/h
318 23-10-2021 03:10:00 7.5 C 7.6 g/m*3 7.5 C 0 km/h
319 23-10-2021 03:15:00 7.5 C 7.6 g/m*3 7.5 C 0 km/h
320 23-10-2021 03:20:00 7.5 C 7.6 g/m*3 7.5 C 3.2 km/h
321 23-10-2021 03:25:00 7.5 C 7.6 g/m*3 7.5 C 0 km/h
322 23-10-2021 03:30:00 7.6 C 7.65 g/m*3 7.6 C 0 km/h
323 23-10-2021 03:35:00 7.5 C 7.6 g/m*3 7.5 C 0 km/h
324 23-10-2021 03:40:00 7.5 C 7.6 g/m*3 7.5 C 0 km/h
325 23-10-2021 03:45:00 7.5 C 7.68 g/m*3 7.5 C 0 km/h
Sensor: Nr:Datum:Temp:Abs-Feuchte:Windchill:Wind:
Aussen-T/F 326 23-10-2021 03:50:00 7.5 C 7.68 g/m*3 7.5 C 0 km/h
327 23-10-2021 03:55:00 7.5 C 7.68 g/m*3 7.5 C 0 km/h
328 23-10-2021 04:00:00 7.5 C 7.68 g/m*3 7.5 C 0 km/h
329 23-10-2021 04:05:00 7.5 C 7.68 g/m*3 7.5 C 0 km/h
330 23-10-2021 04:10:00 7.5 C 7.68 g/m*3 7.5 C 0 km/h
331 23-10-2021 04:15:00 7.4 C 7.63 g/m*3 7.4 C 0 km/h
332 23-10-2021 04:20:00 7.3 C 7.51 g/m*3 7.3 C 0 km/h
333 23-10-2021 04:25:00 7.3 C 7.51 g/m*3 7.3 C 0 km/h
334 23-10-2021 04:30:00 7.2 C 7.46 g/m*3 7.2 C 0 km/h
335 23-10-2021 04:35:00 7.2 C 7.46 g/m*3 7.2 C 0 km/h
336 23-10-2021 04:40:00 7.1 C 7.41 g/m*3 7.1 C 0 km/h
337 23-10-2021 04:45:00 7.1 C 7.41 g/m*3 7.1 C 0 km/h
338 23-10-2021 04:50:00 7.1 C 7.41 g/m*3 7.1 C 0 km/h
339 23-10-2021 04:55:00 6.9 C 7.31 g/m*3 6.9 C 0 km/h
340 23-10-2021 05:00:00 6.9 C 7.31 g/m*3 6.9 C 0 km/h
341 23-10-2021 05:05:00 6.8 C 7.27 g/m*3 6.8 C 0 km/h
342 23-10-2021 05:10:00 6.7 C 7.22 g/m*3 6.7 C 0 km/h
343 23-10-2021 05:15:00 6.6 C 7.17 g/m*3 6.6 C 0 km/h
344 23-10-2021 05:20:00 6.5 C 7.12 g/m*3 6.5 C 0 km/h
345 23-10-2021 05:25:00 6.4 C 7.08 g/m*3 6.4 C 0 km/h
346 23-10-2021 05:30:00 6.3 C 7.03 g/m*3 6.3 C 0 km/h
347 23-10-2021 05:35:00 6.3 C 7.03 g/m*3 6.3 C 0 km/h
348 23-10-2021 05:40:00 6.2 C 6.99 g/m*3 6.2 C 0 km/h
349 23-10-2021 05:45:00 6.2 C 6.99 g/m*3 6.2 C 0 km/h
350 23-10-2021 05:50:00 6.2 C 6.99 g/m*3 6.2 C 0 km/h
Sensor: Nr:Datum:Temp:Abs-Feuchte:Windchill:Wind:
Aussen-T/F 351 23-10-2021 05:55:00 6.1 C 6.94 g/m*3 6.1 C 0 km/h
352 23-10-2021 06:00:00 5.9 C 6.85 g/m*3 5.9 C 0 km/h
353 23-10-2021 06:05:00 5.8 C 6.81 g/m*3 5.8 C 0 km/h
354 23-10-2021 06:10:00 5.7 C 6.76 g/m*3 5.7 C 1.6 km/h
355 23-10-2021 06:15:00 5.6 C 6.72 g/m*3 5.6 C 0 km/h
356 23-10-2021 06:20:00 5.5 C 6.67 g/m*3 5.5 C 0 km/h
357 23-10-2021 06:25:00 5.5 C 6.67 g/m*3 5.5 C 0 km/h
358 23-10-2021 06:30:00 5.5 C 6.74 g/m*3 5.5 C 0 km/h
359 23-10-2021 06:35:00 5.6 C 6.72 g/m*3 5.6 C 0 km/h
360 23-10-2021 06:40:00 5.6 C 6.79 g/m*3 5.6 C 0 km/h
361 23-10-2021 06:45:00 5.7 C 6.83 g/m*3 5.7 C 0 km/h
362 23-10-2021 06:50:00 5.8 C 6.88 g/m*3 5.8 C 0 km/h
363 23-10-2021 06:55:00 5.9 C 6.92 g/m*3 5.9 C 0 km/h
364 23-10-2021 07:00:00 5.9 C 6.92 g/m*3 5.9 C 0 km/h
365 23-10-2021 07:05:00 6 C 6.97 g/m*3 6 C 0 km/h
366 23-10-2021 07:10:00 6 C 6.97 g/m*3 6 C 0 km/h
367 23-10-2021 07:15:00 6 C 6.97 g/m*3 6 C 0 km/h
368 23-10-2021 07:20:00 6 C 6.97 g/m*3 6 C 0 km/h
369 23-10-2021 07:25:00 5.9 C 6.92 g/m*3 5.9 C 0 km/h
370 23-10-2021 07:30:00 5.7 C 6.83 g/m*3 5.7 C 0 km/h
371 23-10-2021 07:35:00 5.6 C 6.72 g/m*3 5.6 C 0 km/h
372 23-10-2021 07:40:00 5.4 C 6.63 g/m*3 5.4 C 0 km/h
373 23-10-2021 07:45:00 5.3 C 6.58 g/m*3 5.3 C 0 km/h
374 23-10-2021 07:50:00 5.2 C 6.61 g/m*3 5.2 C 3.2 km/h
375 23-10-2021 07:55:00 5.2 C 6.61 g/m*3 5.2 C 0 km/h
Sensor: Nr:Datum:Temp:Abs-Feuchte:Windchill:Wind:
Aussen-T/F 376 23-10-2021 08:00:00 5.2 C 6.61 g/m*3 5.2 C 0 km/h
377 23-10-2021 08:05:00 5.3 C 6.65 g/m*3 5.3 C 3.2 km/h
378 23-10-2021 08:10:00 5.4 C 6.7 g/m*3 5.4 C 1.6 km/h
379 23-10-2021 08:15:00 5.6 C 6.79 g/m*3 5.6 C 3.2 km/h
380 23-10-2021 08:20:00 5.8 C 6.88 g/m*3 5.8 C 0 km/h
381 23-10-2021 08:25:00 5.9 C 6.92 g/m*3 5.9 C 0 km/h
382 23-10-2021 08:30:00 6 C 7.04 g/m*3 6 C 0 km/h
383 23-10-2021 08:35:00 6.1 C 7.09 g/m*3 6.1 C 0 km/h
384 23-10-2021 08:40:00 6.2 C 7.06 g/m*3 6.2 C 0 km/h
385 23-10-2021 08:45:00 6.3 C 7.11 g/m*3 6.3 C 0 km/h
386 23-10-2021 08:50:00 6.3 C 7.18 g/m*3 6.3 C 0 km/h
387 23-10-2021 08:55:00 6.4 C 7.23 g/m*3 6.4 C 0 km/h
388 23-10-2021 09:00:00 6.5 C 7.27 g/m*3 6.5 C 0 km/h
389 23-10-2021 09:05:00 6.6 C 7.32 g/m*3 6.6 C 0 km/h
390 23-10-2021 09:10:00 6.7 C 7.37 g/m*3 6.7 C 0 km/h
391 23-10-2021 09:15:00 6.7 C 7.37 g/m*3 6.7 C 0 km/h
392 23-10-2021 09:20:00 6.8 C 7.42 g/m*3 6.8 C 0 km/h
393 23-10-2021 09:25:00 6.9 C 7.47 g/m*3 6.9 C 0 km/h
394 23-10-2021 09:30:00 7.1 C 7.57 g/m*3 7.1 C 0 km/h
395 23-10-2021 09:35:00 7.2 C 7.61 g/m*3 7.2 C 0 km/h
396 23-10-2021 09:40:00 7.3 C 7.66 g/m*3 7.3 C 0 km/h
397 23-10-2021 09:45:00 7.3 C 7.66 g/m*3 7.3 C 0 km/h
398 23-10-2021 09:50:00 7.4 C 7.71 g/m*3 7.4 C 0 km/h
399 23-10-2021 09:55:00 7.5 C 7.76 g/m*3 7.5 C 0 km/h
400 23-10-2021 10:00:00 7.6 C 7.81 g/m*3 7.6 C 0 km/h
Sensor: Nr:Datum:Temp:Abs-Feuchte:Windchill:Wind:
Aussen-T/F 401 23-10-2021 10:05:00 7.6 C 7.81 g/m*3 7.6 C 0 km/h
402 23-10-2021 10:10:00 7.7 C 7.87 g/m*3 7.7 C 0 km/h
403 23-10-2021 10:15:00 7.7 C 7.87 g/m*3 7.7 C 0 km/h
404 23-10-2021 10:20:00 7.8 C 7.92 g/m*3 7.8 C 0 km/h
405 23-10-2021 10:25:00 7.8 C 7.92 g/m*3 7.8 C 0 km/h
406 23-10-2021 10:30:00 7.8 C 7.92 g/m*3 7.8 C 0 km/h
407 23-10-2021 10:35:00 7.8 C 7.92 g/m*3 7.8 C 0 km/h
408 23-10-2021 10:40:00 7.9 C 7.97 g/m*3 7.9 C 0 km/h
409 23-10-2021 10:45:00 7.9 C 7.97 g/m*3 7.9 C 4.8 km/h
410 23-10-2021 10:50:00 7.9 C 7.97 g/m*3 7.9 C 4.8 km/h
411 23-10-2021 10:55:00 7.9 C 7.97 g/m*3 7.9 C 0 km/h
412 23-10-2021 11:00:00 8 C 8.02 g/m*3 8 C 0 km/h
413 23-10-2021 11:05:00 8.2 C 8.12 g/m*3 8.2 C 0 km/h
414 23-10-2021 11:10:00 8.3 C 8.18 g/m*3 8.3 C 0 km/h
415 23-10-2021 11:15:00 8.4 C 8.23 g/m*3 8.4 C 1.6 km/h
416 23-10-2021 11:20:00 8.4 C 8.23 g/m*3 8.4 C 0 km/h
417 23-10-2021 11:25:00 8.5 C 8.28 g/m*3 8.5 C 0 km/h
418 23-10-2021 11:30:00 8.5 C 8.2 g/m*3 8.5 C 0 km/h
419 23-10-2021 11:35:00 8.6 C 8.25 g/m*3 8.6 C 0 km/h
420 23-10-2021 11:40:00 8.7 C 8.39 g/m*3 8.7 C 0 km/h
421 23-10-2021 11:45:00 8.8 C 8.44 g/m*3 8.8 C 0 km/h
422 23-10-2021 11:50:00 8.9 C 8.5 g/m*3 8.9 C 0 km/h
423 23-10-2021 11:55:00 9.1 C 8.61 g/m*3 9.1 C 0 km/h
424 23-10-2021 12:00:00 9.2 C 8.57 g/m*3 9.2 C 1.6 km/h
425 23-10-2021 12:05:00 9.3 C 8.63 g/m*3 9.3 C 0 km/h
Sensor: Nr:Datum:Temp:Abs-Feuchte:Windchill:Wind:
Aussen-T/F 426 23-10-2021 12:10:00 9.3 C 8.63 g/m*3 9.3 C 3.2 km/h
427 23-10-2021 12:15:00 9.3 C 8.63 g/m*3 9.3 C 1.6 km/h
428 23-10-2021 12:20:00 9.4 C 8.68 g/m*3 9.4 C 0 km/h
429 23-10-2021 12:25:00 9.5 C 8.74 g/m*3 9.5 C 0 km/h
430 23-10-2021 12:30:00 9.6 C 8.79 g/m*3 9.6 C 0 km/h
431 23-10-2021 12:35:00 9.8 C 8.91 g/m*3 9.8 C 0 km/h
432 23-10-2021 12:40:00 9.9 C 8.96 g/m*3 9.9 C 0 km/h
433 23-10-2021 12:45:00 10.1 C 8.98 g/m*3 10.1 C 0 km/h
434 23-10-2021 12:50:00 10.1 C 8.89 g/m*3 10.1 C 1.6 km/h
435 23-10-2021 12:55:00 10.2 C 8.95 g/m*3 10.2 C 3.2 km/h
436 23-10-2021 13:00:00 10.3 C 8.91 g/m*3 10.3 C 4.8 km/h
437 23-10-2021 13:05:00 10.4 C 8.87 g/m*3 10.4 C 1.6 km/h
438 23-10-2021 13:10:00 10.4 C 8.77 g/m*3 10.4 C 0 km/h
439 23-10-2021 13:15:00 10.6 C 8.78 g/m*3 10.6 C 0 km/h
440 23-10-2021 13:20:00 10.6 C 8.69 g/m*3 10.6 C 1.6 km/h
441 23-10-2021 13:25:00 10.8 C 8.8 g/m*3 10.8 C 1.6 km/h
442 23-10-2021 13:30:00 10.8 C 8.8 g/m*3 10.8 C 1.6 km/h
443 23-10-2021 13:35:00 10.9 C 8.85 g/m*3 10.9 C 0 km/h
444 23-10-2021 13:40:00 11.1 C 8.86 g/m*3 11.1 C 4.8 km/h
445 23-10-2021 13:45:00 11.1 C 8.76 g/m*3 11.1 C 3.2 km/h
446 23-10-2021 13:50:00 11.1 C 8.76 g/m*3 11.1 C 1.6 km/h
447 23-10-2021 13:55:00 11.1 C 8.66 g/m*3 11.1 C 4.8 km/h
448 23-10-2021 14:00:00 11.2 C 8.72 g/m*3 11.2 C 3.2 km/h
449 23-10-2021 14:05:00 11.2 C 8.62 g/m*3 11.2 C 4.8 km/h
450 23-10-2021 14:10:00 11.2 C 8.51 g/m*3 11.2 C 3.2 km/h
Sensor: Nr:Datum:Temp:Abs-Feuchte:Windchill:Wind:
Aussen-T/F 451 23-10-2021 14:15:00 11.2 C 8.51 g/m*3 11.2 C 3.2 km/h
452 23-10-2021 14:20:00 11.3 C 8.57 g/m*3 11.3 C 1.6 km/h
453 23-10-2021 14:25:00 11.4 C 8.52 g/m*3 11.4 C 3.2 km/h
454 23-10-2021 14:30:00 11.6 C 8.73 g/m*3 11.6 C 4.8 km/h
455 23-10-2021 14:35:00 11.8 C 8.74 g/m*3 11.8 C 6.4 km/h
456 23-10-2021 14:40:00 11.8 C 8.63 g/m*3 11.8 C 6.4 km/h
457 23-10-2021 14:45:00 11.8 C 8.42 g/m*3 11.8 C 6.4 km/h
458 23-10-2021 14:50:00 11.9 C 8.58 g/m*3 11.9 C 6.4 km/h
459 23-10-2021 14:55:00 12 C 8.63 g/m*3 12 C 3.2 km/h
460 23-10-2021 15:00:00 12.1 C 8.47 g/m*3 12.1 C 4.8 km/h
461 23-10-2021 15:05:00 12.1 C 8.36 g/m*3 12.1 C 4.8 km/h
462 23-10-2021 15:10:00 12.1 C 8.47 g/m*3 12.1 C 1.6 km/h
463 23-10-2021 15:15:00 12.1 C 8.36 g/m*3 12.1 C 3.2 km/h
464 23-10-2021 15:20:00 12.1 C 8.36 g/m*3 12.1 C 3.2 km/h
465 23-10-2021 15:25:00 12.2 C 8.52 g/m*3 12.2 C 4.8 km/h
466 23-10-2021 15:30:00 12.2 C 8.42 g/m*3 12.2 C 0 km/h
467 23-10-2021 15:35:00 12.2 C 8.52 g/m*3 12.2 C 3.2 km/h
468 23-10-2021 15:40:00 12.2 C 8.31 g/m*3 12.2 C 4.8 km/h
469 23-10-2021 15:45:00 12.3 C 8.47 g/m*3 12.3 C 1.6 km/h
470 23-10-2021 15:50:00 12.3 C 8.47 g/m*3 12.3 C 4.8 km/h
471 23-10-2021 15:55:00 12.2 C 8.31 g/m*3 12.2 C 4.8 km/h
472 23-10-2021 16:00:00 12.2 C 8.42 g/m*3 12.2 C 1.6 km/h
473 23-10-2021 16:05:00 12.2 C 8.52 g/m*3 12.2 C 1.6 km/h
474 23-10-2021 16:10:00 12.2 C 8.52 g/m*3 12.2 C 1.6 km/h
475 23-10-2021 16:15:00 12.2 C 8.42 g/m*3 12.2 C 3.2 km/h
Sensor: Nr:Datum:Temp:Abs-Feuchte:Windchill:Wind:
Aussen-T/F 476 23-10-2021 16:20:00 12.2 C 8.52 g/m*3 12.2 C 0 km/h
477 23-10-2021 16:25:00 12.3 C 9.01 g/m*3 12.3 C 0 km/h
478 23-10-2021 16:30:00 12.3 C 9.01 g/m*3 12.3 C 0 km/h
479 23-10-2021 16:35:00 12.3 C 9.01 g/m*3 12.3 C 0 km/h
480 23-10-2021 16:40:00 12.4 C 9.18 g/m*3 12.4 C 0 km/h
481 23-10-2021 16:45:00 12.4 C 9.18 g/m*3 12.4 C 1.6 km/h
482 23-10-2021 16:50:00 12.4 C 9.29 g/m*3 12.4 C 0 km/h
483 23-10-2021 16:55:00 12.4 C 9.29 g/m*3 12.4 C 0 km/h
484 23-10-2021 17:00:00 12.3 C 9.23 g/m*3 12.3 C 0 km/h
485 23-10-2021 17:05:00 12.3 C 9.23 g/m*3 12.3 C 0 km/h
486 23-10-2021 17:10:00 12.2 C 9.17 g/m*3 12.2 C 0 km/h
487 23-10-2021 17:15:00 12.1 C 9.12 g/m*3 12.1 C 0 km/h
488 23-10-2021 17:20:00 11.9 C 9.11 g/m*3 11.9 C 0 km/h
489 23-10-2021 17:25:00 11.8 C 9.05 g/m*3 11.8 C 0 km/h
490 23-10-2021 17:30:00 11.8 C 9.16 g/m*3 11.8 C 0 km/h
491 23-10-2021 17:35:00 11.7 C 9.1 g/m*3 11.7 C 0 km/h
492 23-10-2021 17:40:00 11.7 C 9.1 g/m*3 11.7 C 0 km/h
493 23-10-2021 17:45:00 11.6 C 9.04 g/m*3 11.6 C 0 km/h
494 23-10-2021 17:50:00 11.5 C 8.99 g/m*3 11.5 C 0 km/h
495 23-10-2021 17:55:00 11.4 C 8.93 g/m*3 11.4 C 0 km/h
496 23-10-2021 18:00:00 11.2 C 8.92 g/m*3 11.2 C 0 km/h
497 23-10-2021 18:05:00 11.1 C 8.86 g/m*3 11.1 C 0 km/h
498 23-10-2021 18:10:00 10.9 C 8.75 g/m*3 10.9 C 0 km/h
499 23-10-2021 18:15:00 10.8 C 8.7 g/m*3 10.8 C 0 km/h
500 23-10-2021 18:20:00 10.7 C 8.64 g/m*3 10.7 C 0 km/h
Sensor: Nr:Datum:Temp:Abs-Feuchte:Windchill:Wind:
Aussen-T/F 501 23-10-2021 18:25:00 10.4 C 8.48 g/m*3 10.4 C 0 km/h
502 23-10-2021 18:30:00 10.3 C 8.43 g/m*3 10.3 C 0 km/h
503 23-10-2021 18:35:00 10.1 C 8.32 g/m*3 10.1 C 0 km/h
504 23-10-2021 18:40:00 9.9 C 8.22 g/m*3 9.9 C 0 km/h
505 23-10-2021 18:45:00 9.7 C 8.11 g/m*3 9.7 C 0 km/h
506 23-10-2021 18:50:00 9.6 C 8.15 g/m*3 9.6 C 0 km/h
507 23-10-2021 18:55:00 9.4 C 8.05 g/m*3 9.4 C 0 km/h
508 23-10-2021 19:00:00 9.3 C 8 g/m*3 9.3 C 0 km/h
509 23-10-2021 19:05:00 9.1 C 7.9 g/m*3 9.1 C 0 km/h
510 23-10-2021 19:10:00 8.9 C 7.8 g/m*3 8.9 C 0 km/h
511 23-10-2021 19:15:00 8.8 C 7.83 g/m*3 8.8 C 0 km/h
512 23-10-2021 19:20:00 8.7 C 7.87 g/m*3 8.7 C 0 km/h
513 23-10-2021 19:25:00 8.7 C 7.87 g/m*3 8.7 C 0 km/h
514 23-10-2021 19:30:00 8.6 C 7.82 g/m*3 8.6 C 1.6 km/h
515 23-10-2021 19:35:00 8.4 C 7.72 g/m*3 8.4 C 0 km/h
516 23-10-2021 19:40:00 8.3 C 7.67 g/m*3 8.3 C 0 km/h
517 23-10-2021 19:45:00 8.1 C 7.57 g/m*3 8.1 C 0 km/h
518 23-10-2021 19:50:00 7.9 C 7.47 g/m*3 7.9 C 0 km/h
519 23-10-2021 19:55:00 7.8 C 7.43 g/m*3 7.8 C 0 km/h
520 23-10-2021 20:00:00 7.7 C 7.38 g/m*3 7.7 C 0 km/h
521 23-10-2021 20:05:00 7.6 C 7.33 g/m*3 7.6 C 0 km/h
522 23-10-2021 20:10:00 7.4 C 7.24 g/m*3 7.4 C 0 km/h
523 23-10-2021 20:15:00 7.3 C 7.19 g/m*3 7.3 C 0 km/h
524 23-10-2021 20:20:00 7.1 C 7.1 g/m*3 7.1 C 0 km/h
525 23-10-2021 20:25:00 6.9 C 7.08 g/m*3 6.9 C 0 km/h
Sensor: Nr:Datum:Temp:Abs-Feuchte:Windchill:Wind:
Aussen-T/F 526 23-10-2021 20:30:00 6.8 C 7.04 g/m*3 6.8 C 0 km/h
527 23-10-2021 20:35:00 6.7 C 6.99 g/m*3 6.7 C 0 km/h
528 23-10-2021 20:40:00 6.6 C 6.95 g/m*3 6.6 C 0 km/h
529 23-10-2021 20:45:00 6.4 C 6.85 g/m*3 6.4 C 0 km/h
530 23-10-2021 20:50:00 6.3 C 6.81 g/m*3 6.3 C 0 km/h
531 23-10-2021 20:55:00 6.2 C 6.77 g/m*3 6.2 C 0 km/h
532 23-10-2021 21:00:00 6.1 C 6.72 g/m*3 6.1 C 0 km/h
533 23-10-2021 21:05:00 6 C 6.68 g/m*3 6 C 0 km/h
534 23-10-2021 21:10:00 5.9 C 6.63 g/m*3 5.9 C 0 km/h
535 23-10-2021 21:15:00 5.8 C 6.66 g/m*3 5.8 C 0 km/h
536 23-10-2021 21:20:00 5.8 C 6.66 g/m*3 5.8 C 0 km/h
537 23-10-2021 21:25:00 5.7 C 6.62 g/m*3 5.7 C 0 km/h
538 23-10-2021 21:30:00 5.7 C 6.62 g/m*3 5.7 C 0 km/h
539 23-10-2021 21:35:00 5.7 C 6.62 g/m*3 5.7 C 0 km/h
540 23-10-2021 21:40:00 5.6 C 6.57 g/m*3 5.6 C 0 km/h
541 23-10-2021 21:45:00 5.6 C 6.65 g/m*3 5.6 C 0 km/h
542 23-10-2021 21:50:00 5.6 C 6.57 g/m*3 5.6 C 0 km/h
543 23-10-2021 21:55:00 5.5 C 6.6 g/m*3 5.5 C 0 km/h
544 23-10-2021 22:00:00 5.5 C 6.6 g/m*3 5.5 C 0 km/h
545 23-10-2021 22:05:00 5.4 C 6.56 g/m*3 5.4 C 0 km/h
546 23-10-2021 22:10:00 5.4 C 6.56 g/m*3 5.4 C 0 km/h
547 23-10-2021 22:15:00 5.3 C 6.52 g/m*3 5.3 C 0 km/h
548 23-10-2021 22:20:00 5.3 C 6.52 g/m*3 5.3 C 0 km/h
549 23-10-2021 22:25:00 5.2 C 6.47 g/m*3 5.2 C 0 km/h
550 23-10-2021 22:30:00 5.1 C 6.43 g/m*3 5.1 C 0 km/h
Sensor: Nr:Datum:Temp:Abs-Feuchte:Windchill:Wind:
Aussen-T/F 551 23-10-2021 22:35:00 5.1 C 6.43 g/m*3 5.1 C 0 km/h
552 23-10-2021 22:40:00 5 C 6.39 g/m*3 5 C 0 km/h
553 23-10-2021 22:45:00 5 C 6.39 g/m*3 5 C 0 km/h
554 23-10-2021 22:50:00 5 C 6.39 g/m*3 5 C 0 km/h
555 23-10-2021 22:55:00 4.9 C 6.35 g/m*3 4.9 C 0 km/h
556 23-10-2021 23:00:00 4.9 C 6.35 g/m*3 4.9 C 0 km/h
557 23-10-2021 23:05:00 4.8 C 6.3 g/m*3 4.8 C 0 km/h
558 23-10-2021 23:10:00 4.7 C 6.26 g/m*3 4.7 C 0 km/h
559 23-10-2021 23:15:00 4.7 C 6.26 g/m*3 4.7 C 0 km/h
560 23-10-2021 23:20:00 4.6 C 6.22 g/m*3 4.6 C 0 km/h
561 23-10-2021 23:25:00 4.5 C 6.18 g/m*3 4.5 C 0 km/h
562 23-10-2021 23:30:00 4.4 C 6.14 g/m*3 4.4 C 0 km/h
563 23-10-2021 23:35:00 4.4 C 6.14 g/m*3 4.4 C 0 km/h
564 23-10-2021 23:40:00 4.4 C 6.14 g/m*3 4.4 C 0 km/h
565 23-10-2021 23:45:00 4.3 C 6.1 g/m*3 4.3 C 0 km/h
566 23-10-2021 23:50:00 4.3 C 6.1 g/m*3 4.3 C 0 km/h
567 23-10-2021 23:55:00 4.2 C 6.12 g/m*3 4.2 C 0 km/h

Legende:
   Min
   Max


Maximal/Minimal-Werte vom 17.04.2019 - 19.05.2019

Sensor Min Max Avg
Temp
(Aussen-T/F)
2.2 °C
13-05-2019  06:50:00
26.6 °C
24-04-2019  17:05:00
11.51 °C

Die Daten stammen von einer Davis Vantage Pro 2 Wetter-Station und werden unter Linux mit der Software wview2wettercgi und aufbereitet. Alle Angaben erfolgen ohne Gewähr für ihre Vollständigkeit oder Richtigkeit.
Kontakt: Rainer Krienke krienke@uni-koblenz.de . Meine Webseiten an der Uni Koblenz oder privat.
Version: $Revision: 0.78 $